Time;durP1;ratioP1;P1;durP2;ratioP2;P2;SDS_P1;SDS_P2;PMS_P1;PMS_P2;Temp;Humidity;BMP_temperature;BMP_pressure;BME280_temperature;BME280_humidity;BME280_pressure;Samples;Min_cycle;Max_cycle;Signal;HPM_P1;HPM_P2
2022/05/31 00:00:20;;;;;;;5.95;5.38;;;11.70;64.70;;;;;;5014976;28;20431;-67
2022/05/31 00:02:47;;;;;;;6.20;5.60;;;11.70;64.40;;;;;;5019689;28;20461;-67
2022/05/31 00:05:14;;;;;;;5.78;5.18;;;11.70;63.80;;;;;;5048304;22;21182;-67
2022/05/31 00:07:42;;;;;;;6.20;5.70;;;11.70;63.70;;;;;;5019378;28;20453;-69
2022/05/31 00:10:11;;;;;;;6.30;5.70;;;11.70;64.30;;;;;;5028585;28;20437;-67
2022/05/31 00:12:38;;;;;;;6.20;5.70;;;11.60;64.80;;;;;;5025176;28;20439;-67
2022/05/31 00:15:09;;;;;;;6.00;5.50;;;11.60;65.10;;;;;;5027400;28;20437;-67
2022/05/31 00:17:36;;;;;;;6.10;5.50;;;11.70;64.60;;;;;;5028281;28;20431;-66
2022/05/31 00:20:04;;;;;;;5.93;5.30;;;11.60;65.30;;;;;;5027348;28;20844;-67
2022/05/31 00:22:34;;;;;;;6.20;5.70;;;11.70;64.90;;;;;;5024421;28;20437;-69
2022/05/31 00:25:01;;;;;;;6.30;5.70;;;11.60;65.90;;;;;;5027433;28;20856;-66
2022/05/31 00:27:28;;;;;;;6.65;6.10;;;11.70;64.90;;;;;;5028484;28;20434;-66
2022/05/31 00:29:55;;;;;;;6.50;6.00;;;11.70;65.50;;;;;;5025202;28;20434;-68
2022/05/31 00:32:26;;;;;;;6.20;5.70;;;11.60;65.30;;;;;;5024782;28;20435;-66
2022/05/31 00:34:54;;;;;;;6.13;5.63;;;11.60;65.90;;;;;;5028620;28;20470;-69
2022/05/31 00:37:21;;;;;;;6.57;5.97;;;11.50;65.80;;;;;;5026904;28;20434;-67
2022/05/31 00:39:48;;;;;;;6.30;5.80;;;11.50;66.40;;;;;;5028166;28;20497;-67
2022/05/31 00:42:17;;;;;;;6.30;5.70;;;11.50;66.20;;;;;;5026272;28;20435;-68
2022/05/31 00:44:45;;;;;;;5.80;5.30;;;11.50;66.60;;;;;;5026464;28;20513;-66
2022/05/31 00:47:15;;;;;;;6.07;5.45;;;11.50;66.10;;;;;;5027207;28;20446;-66
2022/05/31 00:49:47;;;;;;;5.90;5.30;;;11.50;66.20;;;;;;5029287;28;20462;-68
2022/05/31 00:52:17;;;;;;;6.07;5.57;;;11.50;66.80;;;;;;5031011;28;20488;-66
2022/05/31 00:54:47;;;;;;;5.93;5.47;;;11.50;66.60;;;;;;5022232;28;20452;-67
2022/05/31 00:57:14;;;;;;;6.20;5.40;;;11.40;67.20;;;;;;5026235;28;20493;-66
2022/05/31 00:59:46;;;;;;;6.25;5.75;;;11.40;67.80;;;;;;5027028;28;20431;-67
2022/05/31 01:02:15;;;;;;;6.60;6.00;;;11.40;67.30;;;;;;5026369;28;20430;-67
2022/05/31 01:04:48;;;;;;;6.50;5.75;;;11.40;67.50;;;;;;5023878;28;20512;-66
2022/05/31 01:07:15;;;;;;;6.03;5.47;;;11.40;67.30;;;;;;5028208;28;20441;-67
2022/05/31 01:09:42;;;;;;;5.90;5.40;;;11.40;66.50;;;;;;5023175;28;20439;-67
2022/05/31 01:12:09;;;;;;;5.45;4.95;;;11.40;66.80;;;;;;5026490;28;20438;-65
2022/05/31 01:14:38;;;;;;;5.88;5.38;;;11.40;66.60;;;;;;5022474;28;20848;-67
2022/05/31 01:17:08;;;;;;;5.60;5.10;;;11.40;66.90;;;;;;5024965;28;20809;-67
2022/05/31 01:22:21;;;;;;;5.70;5.20;;;11.40;66.60;;;;;;5027277;28;20430;-67
2022/05/31 01:24:53;;;;;;;5.45;4.95;;;11.40;66.40;;;;;;5020247;28;20875;-68
2022/05/31 01:27:32;;;;;;;5.40;4.90;;;11.40;66.80;;;;;;5017961;28;20480;-67
2022/05/31 01:30:01;;;;;;;6.20;5.10;;;11.30;66.70;;;;;;5025981;28;20438;-68
2022/05/31 01:32:28;;;;;;;5.20;4.80;;;11.30;67.20;;;;;;5026375;28;20482;-67
2022/05/31 01:35:00;;;;;;;4.70;4.30;;;11.30;67.70;;;;;;5019535;28;20442;-66
2022/05/31 01:37:36;;;;;;;5.20;4.70;;;11.30;67.20;;;;;;5024173;28;20434;-67
2022/05/31 01:40:08;;;;;;;5.80;5.00;;;11.30;66.60;;;;;;5034628;28;20434;-66
2022/05/31 01:42:40;;;;;;;5.78;4.70;;;11.30;67.00;;;;;;5024009;28;20430;-68
2022/05/31 01:45:11;;;;;;;5.45;4.70;;;11.30;67.40;;;;;;5021593;28;20435;-67
2022/05/31 01:47:38;;;;;;;5.35;4.40;;;11.30;67.40;;;;;;5019953;28;20442;-68
2022/05/31 01:50:10;;;;;;;5.45;4.95;;;11.20;67.40;;;;;;5020844;28;20492;-68
2022/05/31 01:52:39;;;;;;;4.50;4.10;;;11.20;67.10;;;;;;5018799;28;20450;-68
2022/05/31 01:55:08;;;;;;;5.00;4.40;;;11.20;66.50;;;;;;5019334;28;20439;-68
2022/05/31 01:57:35;;;;;;;4.70;4.30;;;11.20;66.40;;;;;;5019447;28;20427;-69
2022/05/31 02:00:06;;;;;;;4.90;4.40;;;11.20;66.50;;;;;;5024620;28;20431;-68
2022/05/31 02:02:32;;;;;;;6.50;4.57;;;11.10;66.80;;;;;;5023132;28;20504;-66
2022/05/31 02:04:59;;;;;;;5.00;4.60;;;11.10;67.30;;;;;;5026376;28;20439;-68
2022/05/31 02:07:27;;;;;;;4.72;4.32;;;11.10;67.50;;;;;;5026097;28;20461;-66
2022/05/31 02:09:56;;;;;;;4.53;4.13;;;11.00;66.70;;;;;;5023318;28;20427;-66
2022/05/31 02:12:25;;;;;;;5.13;4.73;;;11.00;67.00;;;;;;5021620;28;20430;-67
2022/05/31 02:14:52;;;;;;;4.75;4.30;;;10.90;67.40;;;;;;5024205;28;20434;-69
2022/05/31 02:17:18;;;;;;;5.18;4.78;;;10.90;67.40;;;;;;5025328;28;20833;-67
2022/05/31 02:19:45;;;;;;;5.10;4.70;;;10.80;68.80;;;;;;5026977;28;20442;-68
2022/05/31 02:22:16;;;;;;;4.60;4.20;;;10.80;69.30;;;;;;5022906;28;20435;-67
2022/05/31 02:24:42;;;;;;;5.88;4.40;;;10.80;70.00;;;;;;5025249;28;20434;-67
2022/05/31 02:27:12;;;;;;;5.70;4.85;;;10.80;69.90;;;;;;5021450;28;20438;-67
2022/05/31 02:29:40;;;;;;;4.93;4.43;;;10.90;69.40;;;;;;5025433;28;20500;-67
2022/05/31 02:32:10;;;;;;;5.10;4.60;;;10.90;69.70;;;;;;5026115;28;20434;-67
2022/05/31 02:34:39;;;;;;;4.63;4.10;;;10.90;68.90;;;;;;5022644;28;20510;-67
2022/05/31 02:37:07;;;;;;;5.22;4.40;;;10.90;68.90;;;;;;5023351;28;20434;-67
2022/05/31 02:39:34;;;;;;;5.03;4.47;;;10.90;69.10;;;;;;5025260;28;20439;-67
2022/05/31 02:42:02;;;;;;;4.70;4.30;;;10.90;70.00;;;;;;5021894;28;20439;-67
2022/05/31 02:44:30;;;;;;;5.03;4.53;;;10.90;69.70;;;;;;5024902;28;20520;-68
2022/05/31 02:46:56;;;;;;;4.90;4.47;;;10.90;69.20;;;;;;5023595;28;20431;-68
2022/05/31 02:49:23;;;;;;;6.55;4.07;;;10.80;70.00;;;;;;5026504;28;20439;-65
2022/05/31 02:51:50;;;;;;;5.18;4.43;;;10.80;68.80;;;;;;5023228;28;20504;-67
2022/05/31 02:54:19;;;;;;;6.40;4.47;;;10.80;68.90;;;;;;5025173;28;21063;-67
2022/05/31 02:56:46;;;;;;;4.72;4.40;;;10.80;69.90;;;;;;5020860;28;20431;-67
2022/05/31 02:59:13;;;;;;;5.38;4.50;;;10.80;69.80;;;;;;5021866;28;20439;-67
2022/05/31 03:01:42;;;;;;;4.50;4.10;;;10.70;70.00;;;;;;5023894;28;20433;-67
2022/05/31 03:04:10;;;;;;;4.87;4.47;;;10.70;69.30;;;;;;5023443;28;20443;-66
2022/05/31 03:06:38;;;;;;;6.10;4.78;;;10.70;69.00;;;;;;5021321;28;21007;-67
2022/05/31 03:09:07;;;;;;;4.85;4.35;;;10.70;69.00;;;;;;5024544;28;20438;-67
2022/05/31 03:11:38;;;;;;;4.97;3.95;;;10.70;70.00;;;;;;5025698;28;20462;-67
2022/05/31 03:14:10;;;;;;;4.70;4.10;;;10.70;70.20;;;;;;5023402;28;20497;-67
2022/05/31 03:16:42;;;;;;;4.13;3.72;;;10.80;70.10;;;;;;5024580;28;20431;-66
2022/05/31 03:19:24;;;;;;;4.27;3.87;;;10.80;69.60;;;;;;5022539;28;20438;-66
2022/05/31 03:21:55;;;;;;;5.10;4.47;;;10.80;69.20;;;;;;5031442;28;20430;-66
2022/05/31 03:24:25;;;;;;;4.63;4.22;;;10.80;69.20;;;;;;5021369;28;20430;-66
2022/05/31 03:26:55;;;;;;;3.97;3.60;;;10.80;69.10;;;;;;5022979;28;20936;-67
2022/05/31 03:29:22;;;;;;;3.83;3.53;;;10.80;68.90;;;;;;5022540;28;21023;-66
2022/05/31 03:31:50;;;;;;;4.30;3.90;;;10.80;68.40;;;;;;5020089;28;20501;-66
2022/05/31 03:34:17;;;;;;;4.05;3.60;;;10.90;67.50;;;;;;5016673;28;20430;-66
2022/05/31 03:36:44;;;;;;;3.90;3.60;;;10.90;68.30;;;;;;5018140;28;20422;-66
2022/05/31 03:39:10;;;;;;;4.70;3.97;;;10.90;68.80;;;;;;5018312;28;20852;-67
2022/05/31 03:41:37;;;;;;;4.28;3.88;;;10.90;69.60;;;;;;5026732;28;20438;-66
2022/05/31 03:44:04;;;;;;;4.22;3.83;;;10.90;69.20;;;;;;5026169;28;20434;-67
2022/05/31 03:46:31;;;;;;;5.57;4.10;;;10.90;69.90;;;;;;5026507;28;20442;-67
2022/05/31 03:49:00;;;;;;;3.97;3.67;;;10.90;69.40;;;;;;5022414;28;20557;-67
2022/05/31 03:51:27;;;;;;;6.10;4.10;;;11.00;69.40;;;;;;5028530;28;20466;-68
2022/05/31 03:53:54;;;;;;;4.50;3.40;;;11.00;69.50;;;;;;5027457;28;20431;-66
2022/05/31 03:56:20;;;;;;;3.97;3.57;;;10.90;69.40;;;;;;5025982;28;20438;-68
2022/05/31 03:58:47;;;;;;;4.30;3.60;;;11.00;68.70;;;;;;5025721;28;20467;-66
2022/05/31 04:01:14;;;;;;;4.28;3.70;;;11.10;69.20;;;;;;5027629;28;20430;-69
2022/05/31 04:03:41;;;;;;;4.00;3.60;;;11.10;68.90;;;;;;5026777;28;20448;-67
2022/05/31 04:06:10;;;;;;;4.00;3.55;;;11.10;68.50;;;;;;5024380;28;20458;-67
2022/05/31 04:08:36;;;;;;;3.80;3.40;;;11.20;67.80;;;;;;5025414;28;20439;-67
2022/05/31 04:11:03;;;;;;;4.13;3.47;;;11.20;67.90;;;;;;5023364;28;20438;-67
2022/05/31 04:13:30;;;;;;;4.47;3.17;;;11.20;68.50;;;;;;5016278;28;20446;-67
2022/05/31 04:16:08;;;;;;;4.00;3.60;;;11.10;67.70;;;;;;5018998;28;20508;-69
2022/05/31 04:18:37;;;;;;;4.30;3.90;;;11.10;67.70;;;;;;5025979;28;20988;-69
2022/05/31 04:21:05;;;;;;;6.10;3.60;;;11.10;68.20;;;;;;5031463;28;20440;-71
2022/05/31 04:26:18;;;;;;;3.17;2.80;;;11.20;67.50;;;;;;5028234;28;20808;-68
2022/05/31 04:28:45;;;;;;;3.70;3.10;;;11.20;67.70;;;;;;5021545;28;20492;-68
2022/05/31 04:31:12;;;;;;;3.85;3.45;;;11.20;67.80;;;;;;5022886;28;20447;-68
2022/05/31 04:33:39;;;;;;;3.47;2.83;;;11.30;67.20;;;;;;5027334;28;20442;-68
2022/05/31 04:36:07;;;;;;;3.45;3.13;;;11.20;67.50;;;;;;5026204;28;20442;-69
2022/05/31 04:38:36;;;;;;;3.42;3.10;;;11.30;67.50;;;;;;5028896;28;20995;-70
2022/05/31 04:41:04;;;;;;;4.00;3.30;;;11.30;67.60;;;;;;5026532;28;20435;-76
2022/05/31 04:43:31;;;;;;;3.90;3.15;;;11.20;68.20;;;;;;5024369;28;20876;-66
2022/05/31 04:45:58;;;;;;;3.70;3.40;;;11.30;68.20;;;;;;5022731;28;20439;-69
2022/05/31 04:48:25;;;;;;;5.53;3.10;;;11.30;67.80;;;;;;5027770;28;20427;-67
2022/05/31 04:50:52;;;;;;;4.65;3.70;;;11.30;67.20;;;;;;5028619;28;20427;-70
2022/05/31 04:53:19;;;;;;;4.38;3.30;;;11.30;67.30;;;;;;5027359;28;20929;-69
2022/05/31 04:55:47;;;;;;;4.53;3.22;;;11.30;67.50;;;;;;5029075;28;20423;-70
2022/05/31 04:58:14;;;;;;;3.70;3.40;;;11.30;68.30;;;;;;5023933;28;20477;-67
2022/05/31 05:00:40;;;;;;;3.05;2.85;;;11.30;68.60;;;;;;5029703;28;20936;-68
2022/05/31 05:03:07;;;;;;;3.50;3.20;;;11.30;68.40;;;;;;5023592;28;20820;-67
2022/05/31 05:05:34;;;;;;;5.28;3.53;;;11.30;68.20;;;;;;5026493;28;20435;-68
2022/05/31 05:08:01;;;;;;;5.18;3.30;;;11.30;67.70;;;;;;5029526;28;20431;-67
2022/05/31 05:10:27;;;;;;;4.88;3.00;;;11.30;67.50;;;;;;5019103;28;20937;-66
2022/05/31 05:12:55;;;;;;;4.10;3.70;;;11.30;68.00;;;;;;5022647;28;20431;-66
2022/05/31 05:15:22;;;;;;;3.90;3.20;;;11.30;67.80;;;;;;5027132;28;21072;-67
2022/05/31 05:17:49;;;;;;;4.00;3.15;;;11.40;67.30;;;;;;5027341;28;20435;-67
2022/05/31 05:20:15;;;;;;;3.42;3.13;;;11.40;68.10;;;;;;5024719;28;20442;-66
2022/05/31 05:22:42;;;;;;;4.63;3.25;;;11.50;67.90;;;;;;5029031;28;20418;-68
2022/05/31 05:25:10;;;;;;;4.03;3.55;;;11.50;66.30;;;;;;5028503;28;20500;-68
2022/05/31 05:27:37;;;;;;;4.77;3.20;;;11.70;66.40;;;;;;5024006;28;21006;-66
2022/05/31 05:32:51;;;;;;;3.75;2.80;;;11.70;65.90;;;;;;5027174;28;20561;-67
2022/05/31 05:35:17;;;;;;;4.57;3.10;;;11.80;65.70;;;;;;5028568;28;20430;-67
2022/05/31 05:37:44;;;;;;;3.30;2.90;;;11.90;64.80;;;;;;5027264;28;20929;-68
2022/05/31 05:40:12;;;;;;;3.58;2.80;;;12.00;63.60;;;;;;5028576;28;20427;-67
2022/05/31 05:42:41;;;;;;;3.55;2.80;;;12.10;63.50;;;;;;5031675;28;20496;-65
2022/05/31 05:45:10;;;;;;;3.70;2.80;;;12.10;63.10;;;;;;5026557;28;20431;-66
2022/05/31 05:47:37;;;;;;;3.00;2.70;;;12.20;62.60;;;;;;5027882;28;20538;-66
2022/05/31 05:50:05;;;;;;;2.78;2.40;;;12.20;62.40;;;;;;5027682;28;20434;-66
2022/05/31 05:52:33;;;;;;;3.30;2.80;;;12.30;62.10;;;;;;5026949;28;20441;-66
2022/05/31 05:55:01;;;;;;;3.88;2.90;;;12.30;63.00;;;;;;5026004;28;21114;-67
2022/05/31 05:57:27;;;;;;;5.05;2.95;;;12.30;63.40;;;;;;5025878;28;20940;-65
2022/05/31 05:59:54;;;;;;;5.82;3.00;;;12.30;61.80;;;;;;5024796;28;20485;-67
2022/05/31 06:02:26;;;;;;;3.47;2.50;;;12.40;62.40;;;;;;5024016;28;21458;-67
2022/05/31 06:04:59;;;;;;;4.00;2.80;;;12.40;61.70;;;;;;5025217;28;20439;-68
2022/05/31 06:07:29;;;;;;;3.15;2.67;;;12.40;62.00;;;;;;5023528;28;20438;-67
2022/05/31 06:10:00;;;;;;;3.60;2.97;;;12.40;62.10;;;;;;5022045;28;20427;-67
2022/05/31 06:12:32;;;;;;;3.80;2.50;;;12.40;62.10;;;;;;5027208;28;20443;-67
2022/05/31 06:15:02;;;;;;;3.90;2.80;;;12.40;61.60;;;;;;5020657;28;20431;-67
2022/05/31 06:17:35;;;;;;;4.10;2.67;;;12.50;61.70;;;;;;5025073;28;20516;-67
2022/05/31 06:20:04;;;;;;;3.85;2.40;;;12.50;61.00;;;;;;5024098;28;20512;-68
2022/05/31 06:22:32;;;;;;;3.25;2.60;;;12.60;60.30;;;;;;5024839;28;20486;-65
2022/05/31 06:24:59;;;;;;;3.60;2.40;;;12.80;60.30;;;;;;5027458;28;21051;-68
2022/05/31 06:27:27;;;;;;;3.20;2.40;;;13.00;59.90;;;;;;5023685;28;20455;-66
2022/05/31 06:29:53;;;;;;;3.90;2.50;;;13.10;59.50;;;;;;5023947;28;20500;-66
2022/05/31 06:32:20;;;;;;;2.97;2.10;;;13.30;58.70;;;;;;5020172;28;20509;-66
2022/05/31 06:34:48;;;;;;;3.80;2.50;;;13.50;58.10;;;;;;5025471;28;20468;-66
2022/05/31 06:37:17;;;;;;;3.38;2.90;;;13.70;57.60;;;;;;5026310;28;20414;-66
2022/05/31 06:39:45;;;;;;;3.00;2.40;;;13.80;56.80;;;;;;5024816;28;20434;-65
2022/05/31 06:42:12;;;;;;;3.40;2.30;;;13.80;57.00;;;;;;5023857;28;20444;-66
2022/05/31 06:44:41;;;;;;;2.90;2.70;;;13.80;57.20;;;;;;5033910;28;20530;-66
2022/05/31 06:47:08;;;;;;;4.28;2.58;;;13.80;58.10;;;;;;5026197;28;20485;-66
2022/05/31 06:49:36;;;;;;;3.63;2.63;;;13.90;58.60;;;;;;5025350;28;20912;-66
2022/05/31 06:57:40;;;;;;;2.40;2.00;;;14.40;55.80;;;;;;5026759;28;20422;-66
2022/05/31 07:00:10;;;;;;;3.90;2.75;;;14.60;55.60;;;;;;5026811;28;20438;-66
2022/05/31 07:02:37;;;;;;;2.80;2.60;;;14.80;54.60;;;;;;5026779;28;20879;-66
2022/05/31 07:05:05;;;;;;;3.30;2.60;;;14.90;54.10;;;;;;5022782;28;20434;-66
2022/05/31 07:07:34;;;;;;;3.22;2.33;;;15.00;53.90;;;;;;5027124;28;20505;-66
2022/05/31 07:10:00;;;;;;;2.80;2.22;;;15.00;54.20;;;;;;5027207;28;20425;-66
2022/05/31 07:12:27;;;;;;;3.72;2.63;;;15.00;53.80;;;;;;5026277;28;20423;-66
2022/05/31 07:14:54;;;;;;;3.45;2.30;;;15.00;53.10;;;;;;5025773;28;20489;-66
2022/05/31 07:17:21;;;;;;;3.47;2.15;;;14.80;53.50;;;;;;5027860;28;20431;-66
2022/05/31 07:19:48;;;;;;;3.53;2.38;;;14.60;54.70;;;;;;5029228;28;20491;-66
2022/05/31 07:22:15;;;;;;;4.20;2.63;;;14.40;55.10;;;;;;5030082;28;20481;-65
2022/05/31 07:24:43;;;;;;;3.60;2.50;;;14.30;57.60;;;;;;5030456;28;20422;-66
2022/05/31 07:27:09;;;;;;;2.88;2.58;;;14.20;60.00;;;;;;5031179;28;20484;-66
2022/05/31 07:29:36;;;;;;;4.30;2.67;;;14.10;59.70;;;;;;5031228;28;20430;-66
2022/05/31 07:32:03;;;;;;;3.23;2.80;;;14.00;62.20;;;;;;5029622;28;20465;-65
2022/05/31 07:36:58;;;;;;;2.83;2.40;;;14.00;60.20;;;;;;5049127;28;20428;-66
2022/05/31 07:39:24;;;;;;;2.63;2.15;;;14.10;59.00;;;;;;5063749;28;20407;-64
2022/05/31 07:41:54;;;;;;;7.80;7.00;;;14.10;60.50;;;;;;5073814;28;20429;-65
2022/05/31 07:44:21;;;;;;;3.65;3.35;;;14.30;58.90;;;;;;5069079;28;20415;-65
2022/05/31 07:46:48;;;;;;;3.97;2.55;;;14.40;57.10;;;;;;5053766;28;20432;-65
2022/05/31 07:49:15;;;;;;;4.50;2.67;;;14.50;56.70;;;;;;5063649;28;20480;-65
2022/05/31 07:51:42;;;;;;;4.00;2.50;;;14.50;56.20;;;;;;5057089;28;20436;-65
2022/05/31 07:54:08;;;;;;;3.58;2.50;;;14.50;56.10;;;;;;5050533;28;20490;-66
2022/05/31 07:56:35;;;;;;;3.00;2.40;;;14.50;58.20;;;;;;5056439;28;20473;-65
2022/05/31 07:59:04;;;;;;;4.20;2.38;;;14.40;56.40;;;;;;5049198;28;20936;-66
2022/05/31 08:01:31;;;;;;;3.38;2.30;;;14.30;57.70;;;;;;5038792;28;20441;-65
2022/05/31 08:03:58;;;;;;;3.13;2.20;;;14.20;57.80;;;;;;5049998;28;20502;-63
2022/05/31 08:06:28;;;;;;;2.55;2.35;;;14.10;60.20;;;;;;5052261;28;20453;-65
2022/05/31 08:08:56;;;;;;;10.45;9.35;;;14.00;59.50;;;;;;5049643;28;20430;-66
2022/05/31 08:11:25;;;;;;;3.95;3.25;;;13.90;66.50;;;;;;5067126;28;20427;-66
2022/05/31 08:13:53;;;;;;;4.90;3.40;;;13.60;67.90;;;;;;5059288;28;20585;-66
2022/05/31 08:16:23;;;;;;;3.22;3.00;;;13.30;71.40;;;;;;5044072;28;20440;-65
2022/05/31 08:18:50;;;;;;;4.78;3.60;;;13.00;71.60;;;;;;5049489;28;20434;-65
2022/05/31 08:21:21;;;;;;;3.92;3.53;;;12.80;73.20;;;;;;5060263;28;20472;-64
2022/05/31 08:23:48;;;;;;;4.90;3.70;;;12.70;75.30;;;;;;5055896;28;20431;-64
2022/05/31 08:26:15;;;;;;;4.70;3.50;;;12.60;77.60;;;;;;5062840;28;20429;-66
2022/05/31 08:28:41;;;;;;;4.75;3.30;;;12.60;76.70;;;;;;5046302;28;20430;-65
2022/05/31 08:31:11;;;;;;;7.53;4.20;;;12.50;75.00;;;;;;5049816;28;20417;-66
2022/05/31 08:33:40;;;;;;;3.17;2.80;;;12.60;76.50;;;;;;5068272;28;20705;-66
2022/05/31 08:36:08;;;;;;;5.43;3.40;;;12.60;71.30;;;;;;5059687;28;20487;-66
2022/05/31 08:38:35;;;;;;;3.30;2.90;;;12.70;74.40;;;;;;5041692;28;20551;-66
2022/05/31 08:41:16;;;;;;;3.20;2.50;;;12.70;73.20;;;;;;5053548;28;20454;-66
2022/05/31 08:43:59;;;;;;;2.88;2.58;;;12.70;73.20;;;;;;5039103;28;20438;-65
2022/05/31 08:46:32;;;;;;;3.80;3.10;;;12.80;74.10;;;;;;5046717;28;20520;-67
2022/05/31 08:49:08;;;;;;;2.97;2.67;;;12.80;72.30;;;;;;5053637;28;20445;-66
2022/05/31 08:51:54;;;;;;;3.20;2.90;;;12.90;72.30;;;;;;5052180;28;20889;-66
2022/05/31 08:57:16;;;;;;;3.20;2.80;;;12.90;73.40;;;;;;5050137;28;20930;-65
2022/05/31 08:59:51;;;;;;;3.90;3.50;;;12.90;71.20;;;;;;5035488;28;20427;-65
2022/05/31 09:02:22;;;;;;;3.67;3.00;;;13.00;70.40;;;;;;5054746;28;20979;-63
2022/05/31 09:04:59;;;;;;;5.57;3.25;;;13.00;71.10;;;;;;5050876;28;20862;-66
2022/05/31 09:07:30;;;;;;;4.00;3.20;;;13.00;71.70;;;;;;5046651;28;21092;-65
2022/05/31 09:10:01;;;;;;;4.63;3.85;;;12.90;72.50;;;;;;5051555;28;20433;-64
2022/05/31 09:12:37;;;;;;;5.10;3.55;;;12.90;72.00;;;;;;5050647;28;20475;-64
2022/05/31 09:15:10;;;;;;;5.43;4.70;;;12.80;75.00;;;;;;5066934;28;20427;-65
2022/05/31 09:17:44;;;;;;;4.65;3.95;;;12.70;78.90;;;;;;5052757;28;20465;-65
2022/05/31 09:20:18;;;;;;;5.20;4.50;;;12.60;78.00;;;;;;5048528;28;20437;-65
2022/05/31 09:22:47;;;;;;;5.55;4.30;;;12.70;80.30;;;;;;5045904;28;20516;-65
2022/05/31 09:25:14;;;;;;;5.33;4.70;;;12.80;78.80;;;;;;5048498;28;20436;-65
2022/05/31 09:27:44;;;;;;;5.15;4.10;;;12.90;81.20;;;;;;5049154;28;21152;-68
2022/05/31 09:30:15;;;;;;;6.63;4.00;;;13.10;80.00;;;;;;5049697;28;20435;-65
2022/05/31 09:33:06;;;;;;;4.20;3.53;;;13.40;78.00;;;;;;5048187;28;21207;-65
2022/05/31 09:35:50;;;;;;;4.43;3.38;;;13.70;76.20;;;;;;5038644;28;20437;-66
2022/05/31 09:38:49;;;;;;;4.05;3.20;;;14.10;74.50;;;;;;5037218;28;20525;-65
2022/05/31 09:41:24;;;;;;;3.40;3.10;;;14.40;73.30;;;;;;5049757;28;20421;-65
2022/05/31 09:43:58;;;;;;;3.88;3.50;;;14.90;71.60;;;;;;5037175;28;20419;-65
2022/05/31 09:46:34;;;;;;;3.90;3.50;;;15.20;68.30;;;;;;5058925;28;20441;-65
2022/05/31 09:49:10;;;;;;;4.20;3.80;;;15.50;66.20;;;;;;5057006;28;20439;-66
2022/05/31 09:51:41;;;;;;;4.57;4.18;;;15.80;64.90;;;;;;5043147;28;20430;-65
2022/05/31 09:57:10;;;;;;;4.13;3.40;;;16.50;62.20;;;;;;5048660;28;20804;-66
2022/05/31 09:59:44;;;;;;;3.78;3.20;;;16.80;61.60;;;;;;5043010;28;20996;-66
2022/05/31 10:02:27;;;;;;;3.67;2.60;;;17.30;59.00;;;;;;5051064;28;20450;-66
2022/05/31 10:05:14;;;;;;;3.13;2.40;;;17.60;56.50;;;;;;5041459;28;20792;-65
2022/05/31 10:07:43;;;;;;;2.90;2.60;;;17.70;54.80;;;;;;5057280;28;20973;-65
2022/05/31 10:10:19;;;;;;;3.90;3.00;;;17.80;56.60;;;;;;5066336;28;20441;-65
2022/05/31 10:12:51;;;;;;;4.30;3.20;;;18.20;54.40;;;;;;5046349;28;20963;-65
2022/05/31 10:15:46;;;;;;;3.13;2.72;;;18.70;54.60;;;;;;5050298;28;20420;-66
2022/05/31 10:18:24;;;;;;;3.05;2.55;;;19.10;52.80;;;;;;5045006;28;21079;-65
2022/05/31 10:20:55;;;;;;;2.70;2.50;;;19.40;53.10;;;;;;5056856;28;20488;-66
2022/05/31 10:23:30;;;;;;;3.78;2.88;;;19.40;48.40;;;;;;5064885;28;20413;-66
2022/05/31 10:25:59;;;;;;;3.10;2.80;;;19.40;48.30;;;;;;5051782;28;20483;-66
2022/05/31 10:28:30;;;;;;;3.00;2.60;;;19.20;47.90;;;;;;5054605;28;20498;-67
2022/05/31 10:31:03;;;;;;;3.50;2.90;;;19.20;49.40;;;;;;5046048;28;20513;-66
2022/05/31 10:33:32;;;;;;;4.00;2.78;;;19.20;50.40;;;;;;5052892;28;20520;-66
2022/05/31 10:36:15;;;;;;;4.47;3.40;;;19.40;48.60;;;;;;5058207;28;20417;-66
2022/05/31 10:38:45;;;;;;;4.00;3.30;;;19.60;49.40;;;;;;5050873;28;21133;-66
2022/05/31 10:41:21;;;;;;;4.10;3.00;;;20.00;47.40;;;;;;5051088;28;20439;-68
2022/05/31 10:43:51;;;;;;;4.90;3.00;;;20.60;46.60;;;;;;5034694;28;20491;-67
2022/05/31 10:46:28;;;;;;;3.20;2.55;;;21.10;45.60;;;;;;5047770;28;20508;-68
2022/05/31 10:48:58;;;;;;;2.90;2.47;;;21.50;43.80;;;;;;5044755;28;20454;-68
2022/05/31 10:51:35;;;;;;;3.63;2.30;;;21.60;42.80;;;;;;5047530;28;20421;-66
2022/05/31 10:54:17;;;;;;;2.42;2.00;;;21.50;42.30;;;;;;5051527;28;20487;-66
2022/05/31 10:56:59;;;;;;;2.55;2.35;;;21.30;43.00;;;;;;5048799;28;20490;-66
2022/05/31 10:59:30;;;;;;;3.65;2.70;;;20.90;42.40;;;;;;5045947;28;20429;-66
2022/05/31 11:02:37;;;;;;;3.70;2.50;;;20.50;43.50;;;;;;5045368;28;20993;-68
2022/05/31 11:05:08;;;;;;;3.50;2.72;;;20.30;44.20;;;;;;5034328;28;20862;-66
2022/05/31 11:07:44;;;;;;;3.37;2.80;;;20.00;43.40;;;;;;5048219;28;20416;-66
2022/05/31 11:13:32;;;;;;;3.67;2.90;;;19.70;45.70;;;;;;5049805;28;20435;-66
2022/05/31 11:16:07;;;;;;;3.13;2.90;;;19.90;45.30;;;;;;5051861;28;20427;-66
2022/05/31 11:18:58;;;;;;;3.42;2.83;;;20.60;45.20;;;;;;5068432;28;20412;-67
2022/05/31 11:21:47;;;;;;;3.33;3.03;;;21.40;42.80;;;;;;5047106;28;20425;-65
2022/05/31 11:24:29;;;;;;;3.38;3.08;;;21.80;40.00;;;;;;5045351;28;20491;-68
2022/05/31 11:27:14;;;;;;;4.93;4.47;;;21.70;40.70;;;;;;5047285;28;20458;-66
2022/05/31 11:30:04;;;;;;;3.67;3.27;;;21.60;40.40;;;;;;5050071;28;20589;-67
2022/05/31 11:32:47;;;;;;;3.87;2.80;;;21.30;41.00;;;;;;5043455;28;20413;-64
2022/05/31 11:35:27;;;;;;;3.20;2.90;;;21.00;42.60;;;;;;5040885;28;20425;-67
2022/05/31 11:38:03;;;;;;;3.90;3.20;;;20.90;41.90;;;;;;5046052;28;20536;-67
2022/05/31 11:40:45;;;;;;;3.40;2.92;;;20.90;41.00;;;;;;5049070;28;20408;-67
2022/05/31 11:43:41;;;;;;;4.40;3.00;;;20.80;41.40;;;;;;5048449;28;20466;-67
2022/05/31 11:46:14;;;;;;;3.25;3.00;;;21.00;40.50;;;;;;5052788;28;20467;-66
2022/05/31 11:48:54;;;;;;;3.47;3.00;;;21.30;40.90;;;;;;5051586;28;21230;-65
2022/05/31 11:51:34;;;;;;;3.35;2.95;;;21.60;40.40;;;;;;5045971;28;20622;-65
2022/05/31 11:54:25;;;;;;;3.17;2.80;;;22.10;39.80;;;;;;5045314;28;20429;-67
2022/05/31 11:57:06;;;;;;;3.50;3.20;;;22.70;38.80;;;;;;5033033;28;20770;-66
2022/05/31 11:59:37;;;;;;;3.30;3.00;;;23.00;37.50;;;;;;5053669;28;20429;-68
2022/05/31 12:02:13;;;;;;;3.10;2.80;;;22.90;38.00;;;;;;5048882;28;20414;-67
2022/05/31 12:04:44;;;;;;;3.45;2.70;;;22.70;38.30;;;;;;5050795;28;21059;-66
2022/05/31 12:07:14;;;;;;;4.20;2.70;;;22.50;39.40;;;;;;5046139;28;20914;-68
2022/05/31 12:09:47;;;;;;;3.70;3.05;;;22.20;37.80;;;;;;5041633;28;20509;-66
2022/05/31 12:12:16;;;;;;;3.25;2.90;;;21.90;39.20;;;;;;5053307;28;20469;-67
2022/05/31 12:14:48;;;;;;;4.15;3.33;;;21.50;38.90;;;;;;5060319;28;20433;-68
2022/05/31 12:17:16;;;;;;;3.80;3.03;;;21.30;39.80;;;;;;5055737;28;20406;-66
2022/05/31 12:19:52;;;;;;;3.40;3.10;;;21.20;40.20;;;;;;5049021;28;20425;-67
2022/05/31 12:22:22;;;;;;;3.30;3.00;;;21.00;39.20;;;;;;5052321;28;20436;-66
2022/05/31 12:24:54;;;;;;;3.00;2.70;;;20.80;40.00;;;;;;5062437;28;20491;-66
2022/05/31 12:27:26;;;;;;;4.03;3.63;;;20.90;40.30;;;;;;5060846;28;20413;-66
2022/05/31 12:29:59;;;;;;;3.43;3.13;;;21.10;39.40;;;;;;5059241;28;20455;-67
2022/05/31 12:32:43;;;;;;;3.65;3.00;;;21.40;39.50;;;;;;5051540;28;20838;-66
2022/05/31 12:35:31;;;;;;;2.80;2.60;;;21.60;38.10;;;;;;5070249;28;20415;-67
2022/05/31 12:38:07;;;;;;;3.15;2.83;;;21.90;38.80;;;;;;5040663;28;20489;-68
2022/05/31 12:40:41;;;;;;;2.70;2.50;;;22.40;37.60;;;;;;5043378;28;20429;-65
2022/05/31 12:43:10;;;;;;;4.55;2.50;;;22.70;36.20;;;;;;5047562;28;20443;-67
2022/05/31 12:45:43;;;;;;;2.60;2.40;;;22.80;37.30;;;;;;5045854;28;20491;-68
2022/05/31 12:48:22;;;;;;;5.53;2.85;;;23.10;35.60;;;;;;5061833;28;20423;-66
2022/05/31 12:51:19;;;;;;;2.70;2.50;;;23.60;35.10;;;;;;5059375;28;20483;-66
2022/05/31 12:54:04;;;;;;;2.40;1.92;;;23.80;32.30;;;;;;5059100;28;20495;-68
2022/05/31 12:56:40;;;;;;;1.87;1.70;;;23.40;33.50;;;;;;5067725;28;20423;-66
2022/05/31 12:59:08;;;;;;;2.50;1.60;;;23.30;30.50;;;;;;5075753;28;20407;-65
2022/05/31 13:01:45;;;;;;;1.00;0.90;;;23.10;30.60;;;;;;5091566;28;20411;-66
2022/05/31 13:04:26;;;;;;;2.10;1.30;;;22.90;28.50;;;;;;5082594;28;20411;-66
2022/05/31 13:07:13;;;;;;;2.25;1.20;;;22.70;28.60;;;;;;5072445;28;20431;-65
2022/05/31 13:09:43;;;;;;;1.75;1.30;;;22.50;29.30;;;;;;5058043;28;20520;-68
2022/05/31 13:20:44;;;;;;;2.30;1.33;;;22.70;30.10;;;;;;5048361;28;20459;-68
2022/05/31 13:23:16;;;;;;;2.20;1.40;;;22.70;29.90;;;;;;5067160;28;20441;-67
2022/05/31 13:25:48;;;;;;;3.20;1.60;;;22.90;32.30;;;;;;5059303;28;20432;-66
2022/05/31 13:28:25;;;;;;;2.45;1.70;;;23.10;30.00;;;;;;5051314;28;20429;-66
2022/05/31 13:30:52;;;;;;;2.80;1.70;;;23.00;31.30;;;;;;5048322;28;20466;-67
2022/05/31 13:33:21;;;;;;;6.78;3.78;;;22.90;32.50;;;;;;5048865;28;20431;-67
2022/05/31 13:35:57;;;;;;;3.20;2.00;;;22.90;32.90;;;;;;5040030;28;20899;-65
2022/05/31 13:38:28;;;;;;;3.30;2.50;;;22.80;33.40;;;;;;5042192;28;20411;-67
2022/05/31 13:40:58;;;;;;;2.40;1.65;;;23.00;33.30;;;;;;5044407;28;20423;-66